Time;durP1;ratioP1;P1;durP2;ratioP2;P2;SDS_P1;SDS_P2;PMS_P1;PMS_P2;Temp;Humidity;BMP_temperature;BMP_pressure;BME280_temperature;BME280_humidity;BME280_pressure;Samples;Min_cycle;Max_cycle;Signal;HPM_P1;HPM_P2
2021/11/29 00:01:56;;;;;;;1.60;0.80;;;17.20;56.50;;;;;;5063224;28;20036;-75
2021/11/29 00:04:22;;;;;;;1.55;0.95;;;17.20;56.60;;;;;;5062994;28;20064;-75
2021/11/29 00:06:48;;;;;;;4.13;1.25;;;17.20;56.60;;;;;;5070377;28;20123;-76
2021/11/29 00:09:14;;;;;;;1.80;1.00;;;17.20;56.60;;;;;;5069936;28;20096;-75
2021/11/29 00:11:40;;;;;;;1.73;0.90;;;17.20;56.60;;;;;;5069993;28;20070;-78
2021/11/29 00:14:06;;;;;;;2.65;1.00;;;17.10;56.50;;;;;;5070339;28;20070;-76
2021/11/29 00:16:32;;;;;;;2.08;1.00;;;17.20;56.60;;;;;;5069615;28;20484;-79
2021/11/29 00:18:59;;;;;;;1.55;0.73;;;17.10;57.10;;;;;;5069828;28;20024;-80
2021/11/29 00:21:27;;;;;;;1.77;0.90;;;17.10;56.50;;;;;;5069667;28;20559;-80
2021/11/29 00:23:53;;;;;;;1.30;0.80;;;17.10;56.50;;;;;;5069827;28;20036;-76
2021/11/29 00:26:20;;;;;;;2.13;0.95;;;17.10;56.50;;;;;;5070119;28;20085;-80
2021/11/29 00:28:46;;;;;;;1.88;0.93;;;17.10;56.50;;;;;;5070357;28;20103;-75
2021/11/29 00:31:12;;;;;;;1.40;0.77;;;17.10;56.50;;;;;;5069810;28;20107;-80
2021/11/29 00:33:39;;;;;;;1.83;0.90;;;17.10;56.50;;;;;;5067603;28;20448;-78
2021/11/29 00:36:05;;;;;;;2.10;0.93;;;17.10;56.50;;;;;;5069673;28;20443;-80
2021/11/29 00:38:30;;;;;;;2.10;0.80;;;17.10;56.40;;;;;;5069383;28;20024;-74
2021/11/29 00:40:56;;;;;;;1.80;0.90;;;17.10;56.40;;;;;;5056894;28;20024;-79
2021/11/29 00:43:22;;;;;;;1.73;0.70;;;17.10;56.40;;;;;;5069466;28;20485;-75
2021/11/29 00:45:48;;;;;;;3.63;0.90;;;17.10;56.40;;;;;;5069873;28;20392;-79
2021/11/29 00:48:13;;;;;;;1.45;0.82;;;17.10;56.40;;;;;;5069612;28;20082;-76
2021/11/29 00:50:39;;;;;;;1.20;0.80;;;17.10;56.30;;;;;;5067157;28;20068;-79
2021/11/29 00:53:10;;;;;;;1.13;0.70;;;17.10;56.30;;;;;;5069506;28;20031;-78
2021/11/29 00:55:37;;;;;;;1.88;0.80;;;17.10;56.30;;;;;;5069295;28;20135;-75
2021/11/29 00:58:04;;;;;;;1.55;0.88;;;17.10;56.20;;;;;;5069457;28;20043;-76
2021/11/29 01:00:30;;;;;;;1.90;0.90;;;17.10;56.20;;;;;;5070357;28;20028;-79
2021/11/29 01:02:56;;;;;;;1.50;0.80;;;17.10;56.20;;;;;;5069494;28;20518;-75
2021/11/29 01:05:22;;;;;;;1.40;0.55;;;17.10;56.20;;;;;;5069221;28;20029;-79
2021/11/29 01:07:49;;;;;;;1.10;0.70;;;17.10;56.20;;;;;;5069709;28;20499;-75
2021/11/29 01:10:16;;;;;;;1.25;0.70;;;17.10;56.10;;;;;;5069394;28;20027;-79
2021/11/29 01:12:42;;;;;;;1.42;0.77;;;17.10;56.10;;;;;;5069166;28;20107;-75
2021/11/29 01:15:10;;;;;;;1.25;0.60;;;17.10;56.10;;;;;;5069358;28;20545;-78
2021/11/29 01:17:37;;;;;;;1.20;0.70;;;17.10;56.10;;;;;;5068978;28;20028;-76
2021/11/29 01:20:06;;;;;;;1.58;0.80;;;17.10;56.00;;;;;;5069392;28;20017;-76
2021/11/29 01:22:32;;;;;;;1.60;0.80;;;17.10;56.00;;;;;;5067927;28;20373;-78
2021/11/29 01:24:58;;;;;;;0.82;0.68;;;17.10;56.00;;;;;;5069280;28;20056;-75
2021/11/29 01:27:23;;;;;;;1.55;0.80;;;17.10;55.90;;;;;;5069035;28;20060;-78
2021/11/29 01:29:49;;;;;;;1.08;0.70;;;17.10;56.40;;;;;;5069518;28;20039;-75
2021/11/29 01:32:15;;;;;;;1.35;0.70;;;17.10;56.50;;;;;;5071215;28;20021;-76
2021/11/29 01:34:40;;;;;;;1.35;0.88;;;17.10;55.90;;;;;;5072684;28;20120;-76
2021/11/29 01:37:06;;;;;;;1.38;0.82;;;17.10;55.90;;;;;;5072868;28;20060;-80
2021/11/29 01:39:31;;;;;;;1.67;0.60;;;17.20;55.90;;;;;;5072817;28;20103;-77
2021/11/29 01:42:01;;;;;;;1.67;0.50;;;17.10;55.90;;;;;;5072793;28;20496;-76
2021/11/29 01:44:27;;;;;;;1.13;0.70;;;17.20;55.90;;;;;;5072517;28;20063;-75
2021/11/29 01:46:53;;;;;;;0.88;0.60;;;17.20;55.90;;;;;;5072647;28;20078;-76
2021/11/29 01:49:18;;;;;;;1.50;0.80;;;17.20;55.90;;;;;;5072878;28;20029;-75
2021/11/29 01:51:44;;;;;;;0.70;0.50;;;17.20;55.90;;;;;;5072493;28;20056;-76
2021/11/29 01:54:10;;;;;;;1.83;0.80;;;17.20;55.90;;;;;;5072578;28;20059;-75
2021/11/29 01:56:36;;;;;;;1.65;0.63;;;17.20;55.90;;;;;;5073861;28;20632;-75
2021/11/29 01:59:03;;;;;;;1.17;0.60;;;17.20;55.90;;;;;;5074017;28;20028;-75
2021/11/29 02:01:28;;;;;;;1.95;0.90;;;17.20;55.90;;;;;;5073545;28;20077;-76
2021/11/29 02:03:57;;;;;;;1.88;0.73;;;17.20;56.00;;;;;;5073719;28;20028;-77
2021/11/29 02:06:31;;;;;;;1.35;0.55;;;17.20;56.00;;;;;;5073747;28;20389;-76
2021/11/29 02:08:57;;;;;;;1.13;0.65;;;17.20;56.00;;;;;;5073953;28;20476;-76
2021/11/29 02:11:24;;;;;;;1.27;0.70;;;17.20;56.00;;;;;;5073506;28;20021;-76
2021/11/29 02:13:54;;;;;;;0.98;0.63;;;17.20;56.00;;;;;;5074190;28;20028;-79
2021/11/29 02:16:20;;;;;;;1.45;0.73;;;17.20;56.50;;;;;;5073913;28;20481;-77
2021/11/29 02:18:46;;;;;;;0.90;0.50;;;17.20;55.90;;;;;;5073996;28;20025;-76
2021/11/29 02:21:14;;;;;;;1.08;0.50;;;17.30;55.90;;;;;;5055859;28;20435;-76
2021/11/29 02:23:43;;;;;;;0.93;0.50;;;17.30;55.90;;;;;;5073624;28;20040;-76
2021/11/29 02:26:09;;;;;;;1.08;0.50;;;17.30;55.90;;;;;;5073597;28;20025;-75
2021/11/29 02:28:38;;;;;;;1.10;0.50;;;17.30;55.90;;;;;;5073089;28;20032;-77
2021/11/29 02:31:09;;;;;;;1.20;0.50;;;17.30;55.90;;;;;;5073297;28;20508;-75
2021/11/29 02:33:35;;;;;;;1.30;0.65;;;17.30;55.80;;;;;;5073221;28;20025;-76
2021/11/29 02:36:01;;;;;;;1.00;0.40;;;17.30;55.90;;;;;;5073257;28;20074;-75
2021/11/29 02:38:26;;;;;;;1.17;0.50;;;17.30;55.80;;;;;;5072939;28;20037;-75
2021/11/29 02:40:52;;;;;;;0.50;0.40;;;17.30;55.80;;;;;;5073222;28;20074;-77
2021/11/29 02:43:18;;;;;;;0.90;0.60;;;17.30;55.80;;;;;;5072968;28;20473;-77
2021/11/29 02:45:43;;;;;;;1.70;0.60;;;17.30;55.90;;;;;;5072681;28;20031;-77
2021/11/29 02:48:09;;;;;;;0.70;0.40;;;17.30;55.80;;;;;;5073184;28;20440;-77
2021/11/29 02:50:36;;;;;;;1.13;0.43;;;17.30;55.70;;;;;;5072884;28;20029;-76
2021/11/29 02:53:04;;;;;;;1.05;0.57;;;17.30;55.80;;;;;;5073154;28;20020;-75
2021/11/29 02:55:30;;;;;;;0.88;0.40;;;17.30;55.80;;;;;;5072829;28;20033;-75
2021/11/29 02:57:55;;;;;;;0.75;0.52;;;17.30;55.80;;;;;;5072658;28;20388;-75
2021/11/29 03:00:21;;;;;;;0.70;0.43;;;17.40;55.70;;;;;;5072677;28;20029;-76
2021/11/29 03:03:04;;;;;;;0.77;0.47;;;17.30;55.80;;;;;;5073159;28;20032;-76
2021/11/29 03:05:31;;;;;;;0.85;0.50;;;17.40;55.80;;;;;;5072764;28;20050;-76
2021/11/29 03:07:57;;;;;;;0.75;0.50;;;17.30;55.70;;;;;;5072882;28;20484;-77
2021/11/29 03:10:22;;;;;;;0.52;0.32;;;17.30;55.70;;;;;;5072599;28;20036;-76
2021/11/29 03:12:48;;;;;;;0.95;0.50;;;17.40;55.70;;;;;;5073167;28;20031;-80
2021/11/29 03:15:14;;;;;;;1.02;0.60;;;17.40;55.70;;;;;;5072731;28;20535;-80
2021/11/29 03:17:39;;;;;;;0.70;0.40;;;17.40;55.70;;;;;;5072260;28;20123;-79
2021/11/29 03:20:10;;;;;;;1.13;0.60;;;17.40;55.70;;;;;;5072454;28;20020;-77
2021/11/29 03:22:36;;;;;;;1.13;0.60;;;17.40;55.60;;;;;;5070918;28;20016;-80
2021/11/29 03:25:02;;;;;;;1.20;0.45;;;17.40;55.50;;;;;;5072169;28;20031;-80
2021/11/29 03:27:27;;;;;;;0.95;0.50;;;17.40;55.50;;;;;;5072143;28;20480;-80
2021/11/29 03:29:53;;;;;;;0.88;0.40;;;17.40;55.50;;;;;;5072313;28;20084;-76
2021/11/29 03:32:20;;;;;;;1.33;0.70;;;17.40;55.60;;;;;;5072600;28;20047;-76
2021/11/29 03:34:47;;;;;;;0.88;0.50;;;17.40;55.70;;;;;;5072447;28;20048;-76
2021/11/29 03:37:13;;;;;;;0.95;0.50;;;17.40;55.60;;;;;;5071972;28;20055;-76
2021/11/29 03:39:39;;;;;;;0.85;0.40;;;17.40;55.70;;;;;;5071979;28;20461;-76
2021/11/29 03:42:05;;;;;;;1.05;0.50;;;17.40;55.70;;;;;;5072019;28;20037;-76
2021/11/29 03:44:35;;;;;;;0.88;0.40;;;17.40;55.70;;;;;;5071940;28;20028;-76
2021/11/29 03:47:02;;;;;;;0.82;0.50;;;17.40;55.70;;;;;;5072023;28;20492;-77
2021/11/29 03:49:28;;;;;;;0.65;0.40;;;17.40;55.70;;;;;;5070666;28;20393;-77
2021/11/29 03:51:54;;;;;;;0.88;0.40;;;17.40;55.50;;;;;;5070414;28;20029;-78
2021/11/29 03:54:20;;;;;;;0.68;0.40;;;17.40;55.50;;;;;;5071118;28;20021;-76
2021/11/29 03:56:46;;;;;;;0.50;0.40;;;17.40;55.50;;;;;;5072137;28;20038;-76
2021/11/29 03:59:12;;;;;;;0.73;0.55;;;17.40;55.40;;;;;;5070476;28;20511;-76
2021/11/29 04:01:38;;;;;;;1.13;0.60;;;17.50;55.40;;;;;;5053381;28;20017;-78
2021/11/29 04:04:04;;;;;;;0.77;0.30;;;17.40;55.30;;;;;;5071307;28;20392;-77
2021/11/29 04:06:30;;;;;;;0.65;0.50;;;17.50;55.40;;;;;;5071618;28;20099;-76
2021/11/29 04:08:56;;;;;;;0.75;0.45;;;17.50;55.30;;;;;;5071457;28;20028;-77
2021/11/29 04:11:22;;;;;;;0.57;0.30;;;17.50;55.30;;;;;;5071281;28;20392;-78
2021/11/29 04:13:48;;;;;;;0.43;0.30;;;17.50;55.30;;;;;;5071980;28;20028;-77
2021/11/29 04:16:15;;;;;;;0.75;0.60;;;17.50;55.30;;;;;;5071411;28;20086;-76
2021/11/29 04:18:42;;;;;;;0.50;0.30;;;17.50;55.20;;;;;;5071206;28;20037;-75
2021/11/29 04:21:09;;;;;;;0.55;0.35;;;17.50;55.20;;;;;;5071151;28;20500;-77
2021/11/29 04:23:34;;;;;;;0.95;0.50;;;17.50;55.40;;;;;;5071297;28;20023;-76
2021/11/29 04:26:02;;;;;;;0.60;0.40;;;17.50;55.40;;;;;;5071463;28;20095;-76
2021/11/29 04:28:28;;;;;;;0.30;0.30;;;17.50;55.50;;;;;;5071245;28;20021;-76
2021/11/29 04:30:55;;;;;;;1.58;0.60;;;17.50;55.50;;;;;;5071399;28;20021;-77
2021/11/29 04:33:21;;;;;;;0.73;0.30;;;17.50;55.50;;;;;;5071552;28;20032;-75
2021/11/29 04:35:47;;;;;;;0.75;0.40;;;17.50;55.60;;;;;;5071237;28;20082;-76
2021/11/29 04:38:13;;;;;;;0.47;0.30;;;17.50;55.60;;;;;;5071173;28;20514;-79
2021/11/29 04:40:39;;;;;;;0.90;0.40;;;17.50;55.60;;;;;;5070881;28;20556;-77
2021/11/29 04:43:05;;;;;;;1.13;0.40;;;17.50;55.50;;;;;;5071052;28;20158;-76
2021/11/29 04:45:31;;;;;;;0.52;0.30;;;17.50;55.40;;;;;;5071019;28;20063;-76
2021/11/29 04:47:57;;;;;;;0.70;0.30;;;17.50;55.30;;;;;;5071077;28;20044;-76
2021/11/29 04:50:23;;;;;;;0.75;0.40;;;17.50;55.40;;;;;;5069580;28;20016;-76
2021/11/29 04:52:49;;;;;;;0.82;0.30;;;17.50;55.40;;;;;;5071443;28;20107;-77
2021/11/29 04:55:14;;;;;;;0.75;0.30;;;17.50;55.40;;;;;;5071219;28;20021;-79
2021/11/29 04:57:41;;;;;;;0.95;0.30;;;17.50;55.40;;;;;;5070617;28;20480;-79
2021/11/29 05:00:10;;;;;;;0.85;0.32;;;17.50;55.10;;;;;;5070881;28;20021;-77
2021/11/29 05:02:36;;;;;;;1.00;0.32;;;17.50;55.20;;;;;;5070639;28;20021;-77
2021/11/29 05:05:03;;;;;;;0.70;0.32;;;17.50;55.20;;;;;;5070978;28;20031;-79
2021/11/29 05:07:28;;;;;;;0.80;0.30;;;17.50;55.20;;;;;;5074939;28;20032;-77
2021/11/29 05:09:54;;;;;;;0.40;0.30;;;17.50;55.10;;;;;;5075152;28;20029;-77
2021/11/29 05:12:20;;;;;;;0.43;0.30;;;17.50;55.10;;;;;;5075493;28;20035;-80
2021/11/29 05:14:47;;;;;;;0.30;0.30;;;17.50;55.30;;;;;;5074905;28;20013;-78
2021/11/29 05:17:17;;;;;;;0.55;0.30;;;17.50;55.30;;;;;;5074669;28;20071;-80
2021/11/29 05:19:43;;;;;;;0.68;0.20;;;17.50;55.20;;;;;;5074763;28;20021;-77
2021/11/29 05:22:09;;;;;;;0.40;0.40;;;17.50;55.30;;;;;;5074853;28;20078;-77
2021/11/29 05:24:35;;;;;;;0.63;0.30;;;17.50;55.50;;;;;;5074502;28;20032;-77
2021/11/29 05:27:01;;;;;;;0.93;0.40;;;17.50;55.40;;;;;;5074709;28;20078;-79
2021/11/29 05:29:29;;;;;;;0.63;0.35;;;17.50;55.40;;;;;;5074643;28;20028;-78
2021/11/29 05:31:55;;;;;;;0.98;0.47;;;17.50;55.40;;;;;;5074742;28;20028;-77
2021/11/29 05:34:21;;;;;;;0.28;0.28;;;17.50;55.30;;;;;;5074651;28;20032;-76
2021/11/29 05:36:47;;;;;;;0.95;0.25;;;17.50;55.10;;;;;;5074607;28;20111;-80
2021/11/29 05:39:16;;;;;;;0.22;0.20;;;17.50;55.20;;;;;;5074387;28;20029;-80
2021/11/29 05:41:43;;;;;;;1.42;0.40;;;17.50;55.80;;;;;;5074204;28;20066;-81
2021/11/29 05:44:09;;;;;;;0.35;0.30;;;17.50;55.10;;;;;;5074358;28;20111;-80
2021/11/29 05:46:34;;;;;;;0.65;0.20;;;17.50;55.10;;;;;;5073870;28;20052;-79
2021/11/29 05:49:01;;;;;;;0.52;0.30;;;17.50;55.00;;;;;;5056246;28;20082;-77
2021/11/29 05:51:27;;;;;;;0.30;0.22;;;17.50;55.10;;;;;;5074687;28;20111;-81
2021/11/29 05:53:53;;;;;;;0.52;0.30;;;17.50;55.00;;;;;;5082620;28;20071;-78
2021/11/29 05:56:19;;;;;;;0.40;0.30;;;17.50;54.90;;;;;;5056590;28;20078;-78
2021/11/29 05:58:44;;;;;;;0.25;0.20;;;17.50;54.90;;;;;;5073938;28;20037;-77
2021/11/29 06:01:10;;;;;;;0.80;0.30;;;17.60;55.00;;;;;;5057637;28;20856;-81
2021/11/29 06:03:36;;;;;;;0.15;0.15;;;17.60;55.00;;;;;;5073802;28;20090;-80
2021/11/29 06:06:02;;;;;;;0.40;0.30;;;17.60;55.00;;;;;;5074042;28;20021;-80
2021/11/29 06:08:28;;;;;;;0.45;0.30;;;17.60;55.00;;;;;;5055838;28;20024;-81
2021/11/29 06:10:54;;;;;;;0.32;0.30;;;17.60;55.10;;;;;;5077216;28;20021;-81
2021/11/29 06:13:19;;;;;;;0.35;0.20;;;17.60;55.20;;;;;;5085659;28;20020;-77
2021/11/29 06:15:45;;;;;;;0.47;0.32;;;17.60;55.10;;;;;;5093758;28;20153;-77
2021/11/29 06:18:11;;;;;;;1.30;0.40;;;17.60;55.00;;;;;;5089638;28;20040;-79
2021/11/29 06:20:37;;;;;;;0.32;0.25;;;17.60;54.90;;;;;;5074013;28;20537;-79
2021/11/29 06:23:03;;;;;;;0.47;0.30;;;17.60;54.80;;;;;;5093988;28;20028;-80
2021/11/29 06:25:30;;;;;;;0.70;0.40;;;17.60;54.70;;;;;;5093712;28;20031;-78
2021/11/29 06:27:56;;;;;;;0.45;0.32;;;17.70;55.30;;;;;;5093826;28;20494;-78
2021/11/29 06:30:23;;;;;;;0.68;0.38;;;17.70;54.80;;;;;;5093576;28;20014;-78
2021/11/29 06:32:51;;;;;;;0.73;0.30;;;17.70;54.70;;;;;;5088478;28;20033;-80
2021/11/29 06:35:17;;;;;;;0.22;0.20;;;17.70;54.80;;;;;;5082293;28;20021;-79
2021/11/29 06:37:48;;;;;;;1.00;0.30;;;17.70;54.70;;;;;;5073135;28;20033;-78
2021/11/29 06:40:15;;;;;;;1.52;0.68;;;17.70;54.70;;;;;;5073455;28;20020;-79
2021/11/29 06:42:41;;;;;;;0.63;0.30;;;17.70;54.80;;;;;;5072955;28;20036;-79
2021/11/29 06:45:07;;;;;;;0.90;0.50;;;17.70;54.80;;;;;;5073282;28;20020;-80
2021/11/29 06:47:33;;;;;;;0.73;0.30;;;17.70;55.00;;;;;;5079916;28;20086;-79
2021/11/29 06:49:58;;;;;;;0.80;0.30;;;17.70;55.10;;;;;;5073257;28;20388;-79
2021/11/29 06:52:24;;;;;;;4.95;0.32;;;17.80;55.40;;;;;;5072865;28;20481;-79
2021/11/29 06:54:51;;;;;;;0.30;0.30;;;17.80;55.80;;;;;;5060525;28;20025;-79
2021/11/29 06:57:17;;;;;;;0.88;0.50;;;17.80;55.80;;;;;;5082889;28;20051;-79
2021/11/29 06:59:46;;;;;;;4.90;0.65;;;17.80;55.90;;;;;;5086569;28;20487;-78
2021/11/29 07:02:12;;;;;;;1.67;0.60;;;17.80;56.10;;;;;;5084044;28;20032;-78
2021/11/29 07:04:37;;;;;;;1.20;0.57;;;17.80;56.10;;;;;;5072824;28;20032;-79
2021/11/29 07:07:04;;;;;;;1.52;0.50;;;17.80;56.00;;;;;;5072926;28;20025;-80
2021/11/29 07:09:30;;;;;;;2.70;0.70;;;17.90;56.10;;;;;;5074460;28;20036;-82
2021/11/29 07:11:55;;;;;;;1.63;0.70;;;17.80;55.60;;;;;;5093003;28;20499;-79
2021/11/29 07:14:21;;;;;;;2.03;0.60;;;17.80;56.40;;;;;;5092757;28;20021;-77
2021/11/29 07:16:48;;;;;;;2.50;0.70;;;17.80;55.80;;;;;;5093228;28;20048;-77
2021/11/29 07:19:17;;;;;;;2.40;0.70;;;17.80;55.70;;;;;;5092248;28;20067;-83
2021/11/29 07:21:44;;;;;;;2.17;0.60;;;17.80;55.60;;;;;;5092646;28;20024;-83
2021/11/29 07:24:10;;;;;;;0.82;0.35;;;17.80;55.50;;;;;;5086332;28;20880;-83
2021/11/29 07:26:41;;;;;;;2.60;0.50;;;17.80;55.40;;;;;;5071750;28;20016;-83
2021/11/29 07:29:07;;;;;;;3.28;0.60;;;17.80;55.40;;;;;;5071421;28;20075;-84
2021/11/29 07:31:34;;;;;;;1.40;0.50;;;17.80;55.30;;;;;;5072170;28;20437;-84
2021/11/29 07:34:01;;;;;;;2.25;0.63;;;17.80;55.20;;;;;;5072410;28;20067;-78
2021/11/29 07:36:26;;;;;;;2.67;0.50;;;17.80;55.10;;;;;;5072079;28;20115;-79
2021/11/29 07:38:52;;;;;;;0.82;0.40;;;17.80;55.00;;;;;;5072855;28;20467;-81
2021/11/29 07:41:19;;;;;;;1.45;0.50;;;17.80;55.00;;;;;;5073116;28;20017;-82
2021/11/29 07:43:44;;;;;;;2.17;0.60;;;17.80;55.00;;;;;;5071739;28;20035;-82
2021/11/29 07:46:10;;;;;;;1.05;0.40;;;17.80;54.90;;;;;;5073006;28;20498;-78
2021/11/29 07:48:35;;;;;;;0.80;0.45;;;17.80;54.80;;;;;;5092054;28;20074;-81
2021/11/29 07:51:01;;;;;;;3.50;0.52;;;17.80;54.70;;;;;;5087606;28;20032;-80
2021/11/29 07:53:27;;;;;;;1.42;0.40;;;17.70;54.70;;;;;;5076626;28;20028;-82
2021/11/29 07:55:53;;;;;;;1.73;0.60;;;17.80;54.70;;;;;;5072083;28;20077;-90
2021/11/29 07:58:21;;;;;;;2.13;0.40;;;17.70;54.70;;;;;;5072350;28;20128;-88
2021/11/29 08:00:46;;;;;;;1.23;0.50;;;17.70;54.60;;;;;;5083651;28;20101;-85
2021/11/29 08:03:12;;;;;;;0.95;0.40;;;17.70;54.60;;;;;;5092121;28;20058;-84
2021/11/29 08:05:38;;;;;;;1.92;0.60;;;17.70;54.60;;;;;;5091547;28;20031;-78
2021/11/29 08:08:06;;;;;;;1.35;0.57;;;17.70;54.50;;;;;;5075661;28;20024;-81
2021/11/29 08:10:34;;;;;;;1.27;0.30;;;17.70;54.50;;;;;;5071024;28;20025;-82
2021/11/29 08:13:00;;;;;;;1.23;0.35;;;17.70;54.40;;;;;;5071152;28;20032;-84
2021/11/29 08:15:26;;;;;;;0.73;0.40;;;17.60;54.30;;;;;;5071264;28;20099;-85
2021/11/29 08:17:51;;;;;;;1.85;0.60;;;17.70;54.40;;;;;;5071495;28;20441;-84
2021/11/29 08:20:19;;;;;;;2.83;0.50;;;17.60;54.40;;;;;;5071450;28;20108;-85
2021/11/29 08:22:46;;;;;;;2.90;0.50;;;17.60;54.30;;;;;;5071019;28;20091;-81
2021/11/29 08:25:12;;;;;;;1.20;0.50;;;17.60;54.30;;;;;;5071171;28;20012;-84
2021/11/29 08:27:37;;;;;;;1.13;0.45;;;17.60;54.30;;;;;;5053266;28;20031;-83
2021/11/29 08:30:06;;;;;;;1.20;0.50;;;17.60;54.20;;;;;;5071339;28;20029;-84
2021/11/29 08:32:32;;;;;;;1.30;0.50;;;17.60;54.30;;;;;;5070882;28;20019;-86
2021/11/29 08:34:57;;;;;;;1.35;0.43;;;17.60;54.30;;;;;;5071125;28;20036;-84
2021/11/29 08:37:24;;;;;;;2.20;0.50;;;17.60;54.40;;;;;;5070794;28;20036;-83
2021/11/29 08:39:50;;;;;;;1.50;0.50;;;17.60;54.40;;;;;;5071484;28;20099;-82
2021/11/29 08:42:16;;;;;;;1.75;0.50;;;17.60;54.40;;;;;;5071214;28;20032;-85
2021/11/29 08:44:42;;;;;;;1.33;0.50;;;17.60;54.40;;;;;;5070915;28;20552;-84
2021/11/29 08:47:07;;;;;;;1.95;0.40;;;17.50;54.40;;;;;;5071057;28;20548;-84
2021/11/29 08:49:33;;;;;;;2.65;0.50;;;17.50;54.40;;;;;;5077056;28;20515;-84
2021/11/29 08:51:59;;;;;;;1.25;0.40;;;17.50;54.30;;;;;;5079629;28;20455;-83
2021/11/29 08:54:25;;;;;;;2.17;0.50;;;17.50;54.30;;;;;;5070546;28;20104;-86
2021/11/29 08:56:52;;;;;;;2.38;0.57;;;17.50;54.30;;;;;;5071199;28;20081;-77
2021/11/29 08:59:20;;;;;;;0.75;0.38;;;17.50;54.40;;;;;;5071211;28;20400;-83
2021/11/29 09:01:47;;;;;;;0.80;0.50;;;17.40;54.30;;;;;;5071359;28;20107;-84
2021/11/29 09:04:13;;;;;;;1.27;0.40;;;17.40;54.30;;;;;;5071033;28;20028;-84
2021/11/29 09:06:39;;;;;;;1.08;0.40;;;17.40;54.30;;;;;;5070796;28;20433;-76
2021/11/29 09:09:05;;;;;;;1.33;0.30;;;17.40;54.20;;;;;;5070840;28;20020;-84
2021/11/29 09:11:31;;;;;;;1.42;0.40;;;17.40;54.20;;;;;;5070836;28;20408;-84
2021/11/29 09:13:58;;;;;;;1.17;0.47;;;17.40;54.30;;;;;;5070895;28;20095;-84
2021/11/29 09:16:24;;;;;;;1.00;0.60;;;17.40;54.20;;;;;;5070544;28;20020;-84
2021/11/29 09:18:50;;;;;;;1.23;0.50;;;17.40;54.20;;;;;;5071127;28;20032;-82
2021/11/29 09:21:18;;;;;;;1.48;0.60;;;17.40;54.20;;;;;;5071213;28;20071;-77
2021/11/29 09:23:45;;;;;;;1.20;0.45;;;17.40;54.20;;;;;;5070642;28;20091;-82
2021/11/29 09:26:11;;;;;;;1.27;0.47;;;17.40;54.10;;;;;;5070884;28;20477;-78
2021/11/29 09:28:38;;;;;;;1.38;0.63;;;17.40;54.10;;;;;;5070731;28;20466;-76
2021/11/29 09:31:04;;;;;;;0.60;0.40;;;17.40;54.10;;;;;;5070633;28;20016;-75
2021/11/29 09:33:30;;;;;;;1.50;0.50;;;17.40;54.00;;;;;;5070090;28;20086;-78
2021/11/29 09:35:56;;;;;;;1.95;0.68;;;17.40;54.00;;;;;;5070357;28;20020;-75
2021/11/29 09:38:22;;;;;;;1.83;0.43;;;17.40;54.00;;;;;;5070262;28;20035;-79
2021/11/29 09:40:48;;;;;;;2.22;0.60;;;17.40;54.00;;;;;;5071036;28;20024;-82
2021/11/29 09:43:16;;;;;;;1.55;0.75;;;17.40;54.00;;;;;;5070719;28;20481;-81
2021/11/29 09:45:45;;;;;;;1.77;0.50;;;17.40;53.90;;;;;;5070179;28;20087;-77
2021/11/29 09:48:11;;;;;;;1.73;0.45;;;17.40;53.90;;;;;;5070407;28;20646;-82
2021/11/29 09:50:40;;;;;;;1.10;0.50;;;17.30;53.80;;;;;;5052052;28;20056;-82
2021/11/29 09:53:06;;;;;;;1.30;0.40;;;17.40;54.40;;;;;;5072152;28;20039;-83
2021/11/29 09:55:32;;;;;;;1.45;0.47;;;17.40;53.90;;;;;;5055783;28;20070;-83
2021/11/29 09:57:59;;;;;;;0.88;0.50;;;17.40;53.80;;;;;;5086632;28;20033;-81
2021/11/29 10:00:33;;;;;;;1.20;0.40;;;17.30;53.80;;;;;;5079156;28;20096;-84
2021/11/29 10:03:00;;;;;;;1.15;0.60;;;17.40;53.80;;;;;;5094390;28;20040;-81
2021/11/29 10:05:26;;;;;;;2.88;0.60;;;17.40;53.80;;;;;;5073952;28;20020;-82
2021/11/29 10:07:53;;;;;;;1.25;0.50;;;17.40;53.80;;;;;;5073885;28;20033;-78
2021/11/29 10:10:29;;;;;;;2.45;0.80;;;17.40;53.80;;;;;;5091079;28;20549;-77
2021/11/29 10:13:12;;;;;;;1.52;0.45;;;17.40;53.70;;;;;;5094135;28;20044;-80
2021/11/29 10:15:41;;;;;;;1.35;0.50;;;17.40;53.70;;;;;;5087762;28;20099;-77
2021/11/29 10:18:18;;;;;;;1.48;0.63;;;17.40;53.70;;;;;;5094213;28;20062;-78
2021/11/29 10:21:07;;;;;;;1.05;0.40;;;17.40;53.70;;;;;;5081235;28;20024;-75
2021/11/29 10:23:37;;;;;;;0.90;0.40;;;17.40;53.80;;;;;;5085484;28;20111;-79
2021/11/29 10:26:10;;;;;;;1.25;0.57;;;17.40;53.70;;;;;;5056492;28;20028;-76
2021/11/29 10:28:42;;;;;;;1.50;0.65;;;17.40;53.70;;;;;;5073485;28;20024;-74
2021/11/29 10:31:09;;;;;;;2.28;0.50;;;17.40;53.70;;;;;;5057060;28;20120;-77
2021/11/29 10:34:03;;;;;;;1.25;0.52;;;17.40;53.80;;;;;;5092029;28;20396;-78
2021/11/29 10:36:32;;;;;;;2.63;0.47;;;17.50;53.70;;;;;;5064579;28;20020;-75
2021/11/29 10:39:10;;;;;;;1.80;0.70;;;17.50;53.70;;;;;;5073461;28;20117;-75
2021/11/29 10:41:40;;;;;;;1.85;0.75;;;17.50;53.70;;;;;;5059298;28;20368;-75
2021/11/29 10:44:12;;;;;;;1.50;0.52;;;17.50;53.70;;;;;;5080442;28;20032;-76
2021/11/29 10:46:41;;;;;;;2.35;0.75;;;17.50;53.60;;;;;;5055017;28;20035;-80
2021/11/29 10:49:13;;;;;;;1.77;0.57;;;17.60;53.70;;;;;;5073416;28;20036;-80
2021/11/29 10:51:40;;;;;;;1.30;0.50;;;17.60;53.70;;;;;;5073309;28;20091;-81
2021/11/29 10:54:09;;;;;;;2.30;0.55;;;17.60;53.60;;;;;;5075365;28;20472;-84
2021/11/29 10:56:37;;;;;;;2.17;0.65;;;17.60;53.50;;;;;;5091300;28;20020;-81
2021/11/29 10:59:07;;;;;;;1.70;0.50;;;17.60;53.40;;;;;;5084579;28;20086;-81
2021/11/29 11:01:40;;;;;;;1.63;0.50;;;17.70;53.40;;;;;;5080905;28;20396;-80
2021/11/29 11:04:11;;;;;;;2.13;0.60;;;17.70;53.40;;;;;;5083662;28;20070;-78
2021/11/29 11:06:44;;;;;;;1.75;0.50;;;17.80;53.30;;;;;;5072832;28;20024;-77
2021/11/29 11:09:12;;;;;;;1.25;0.60;;;17.80;53.10;;;;;;5075250;28;20504;-80
2021/11/29 11:11:58;;;;;;;2.15;0.60;;;17.90;53.10;;;;;;5092856;28;20016;-77
2021/11/29 11:14:28;;;;;;;1.05;0.45;;;18.00;52.90;;;;;;5087985;28;20066;-79
2021/11/29 11:16:58;;;;;;;2.25;0.77;;;18.20;52.80;;;;;;5056813;28;20077;-80
2021/11/29 11:19:41;;;;;;;2.20;0.60;;;18.40;52.50;;;;;;5102719;28;20024;-76
2021/11/29 11:22:12;;;;;;;2.80;0.70;;;18.90;51.90;;;;;;5081114;28;20515;-76
2021/11/29 11:24:54;;;;;;;3.65;1.00;;;19.20;51.40;;;;;;5073253;28;20436;-77
2021/11/29 11:27:20;;;;;;;2.35;0.80;;;20.40;49.40;;;;;;5075798;28;20040;-76
2021/11/29 11:29:55;;;;;;;1.90;0.63;;;21.10;47.80;;;;;;5076449;28;20016;-74
2021/11/29 11:32:23;;;;;;;;;;;21.80;46.80;;;;;;5071315;28;20099;-75
2021/11/29 11:34:55;;;;;;;3.03;0.90;;;22.10;45.90;;;;;;5080992;28;19962;-76
2021/11/29 11:37:25;;;;;;;2.85;0.90;;;22.30;46.10;;;;;;5084172;28;20020;-74
2021/11/29 11:39:52;;;;;;;2.38;0.95;;;22.00;46.30;;;;;;5092695;28;20027;-77
2021/11/29 11:42:19;;;;;;;1.52;0.60;;;22.10;46.30;;;;;;5083508;28;20038;-77
2021/11/29 11:44:45;;;;;;;2.38;0.70;;;22.50;46.00;;;;;;5072024;28;20082;-78
2021/11/29 11:47:12;;;;;;;3.00;0.70;;;22.70;45.30;;;;;;5071901;28;20046;-78
2021/11/29 11:49:43;;;;;;;2.15;0.65;;;22.40;45.80;;;;;;5071876;28;20025;-79
2021/11/29 11:52:12;;;;;;;1.05;0.52;;;21.80;46.90;;;;;;5072037;28;20032;-78
2021/11/29 11:54:40;;;;;;;3.22;0.90;;;21.40;48.50;;;;;;5071155;28;20017;-78
2021/11/29 11:57:08;;;;;;;1.95;0.82;;;22.20;47.20;;;;;;5071750;28;20499;-76
2021/11/29 11:59:57;;;;;;;3.78;0.88;;;22.80;46.00;;;;;;5088546;28;20036;-87
2021/11/29 12:02:47;;;;;;;2.45;0.73;;;23.60;44.60;;;;;;5077666;28;20484;-76
2021/11/29 12:05:21;;;;;;;2.35;1.05;;;24.20;43.30;;;;;;5071873;28;20036;-76
2021/11/29 12:07:47;;;;;;;2.85;1.20;;;24.40;42.80;;;;;;5072270;28;20577;-78
2021/11/29 12:10:28;;;;;;;3.47;0.80;;;24.70;42.10;;;;;;5071692;28;20110;-77
2021/11/29 12:13:00;;;;;;;1.90;0.63;;;24.90;41.70;;;;;;5071622;28;20107;-78
2021/11/29 12:15:45;;;;;;;2.30;1.00;;;25.20;41.40;;;;;;5070885;28;20033;-77
2021/11/29 12:18:19;;;;;;;2.85;1.00;;;25.40;41.20;;;;;;5090815;28;20047;-79
2021/11/29 12:21:11;;;;;;;3.03;0.70;;;25.50;40.80;;;;;;5091552;28;20027;-77
2021/11/29 12:23:39;;;;;;;2.97;1.17;;;25.70;40.70;;;;;;5091718;28;20051;-80
2021/11/29 12:26:05;;;;;;;3.17;1.20;;;25.70;40.70;;;;;;5090495;28;20027;-80
2021/11/29 12:28:37;;;;;;;1.85;0.57;;;25.80;40.60;;;;;;5073268;28;20028;-81
2021/11/29 12:31:03;;;;;;;2.42;0.90;;;25.80;40.70;;;;;;5091544;28;20024;-80
2021/11/29 12:33:44;;;;;;;3.00;0.70;;;25.70;40.60;;;;;;5084013;28;20089;-81
2021/11/29 12:36:11;;;;;;;1.20;0.80;;;25.60;40.60;;;;;;5073906;28;20073;-81
2021/11/29 12:38:48;;;;;;;1.55;0.68;;;25.60;40.80;;;;;;5071873;28;20032;-80
2021/11/29 12:41:37;;;;;;;3.33;0.85;;;25.10;41.20;;;;;;5091414;28;20016;-81
2021/11/29 12:44:05;;;;;;;3.03;0.98;;;24.70;42.00;;;;;;5051392;28;20060;-81
2021/11/29 12:46:31;;;;;;;2.00;1.08;;;24.70;42.10;;;;;;5085803;28;20028;-80
2021/11/29 12:49:02;;;;;;;3.75;0.80;;;24.70;42.20;;;;;;5074799;28;20032;-79
2021/11/29 12:51:54;;;;;;;2.35;0.63;;;24.60;42.20;;;;;;5081837;28;20077;-80